KSKF/SKF METAR and TAF weather

Enter ICAO airport designator
Station Type Date Time Source
KSKF METAR 2021/09/24 01:55 UTC NOAA

KSKF 240155Z 00000KT 10SM CLR 22/06 A2999 RMK AO2A SLP151 T02150058


Station Type Date Time Source
KSKF Decoded METAR 2021/09/24 01:55 UTC NOAA

Kelly Air Force Base, TX, United States (KSKF) 29-23N 098-35W
Sep 23, 2021 - 09:55 PM EDT / 2021.09.24 0155 UTC
Wind: Calm:0
Visibility: 10 mile(s):0
Sky conditions: clear
Temperature: 70.7 F (21.5 C)
Dew Point: 42.4 F (5.8 C)
Relative Humidity: 35%
Pressure (altimeter): 29.99 in. Hg (1015 hPa)
ob: KSKF 240155Z 00000KT 10SM CLR 22/06 A2999 RMK AO2A SLP151 T02150058
cycle: 2

Station Type Date Time Source
KSKF TAF 2021/09/24 02:03 UTC NOAA

TAF KSKF 240200Z 2402/2508 12007KT 9999 FEW250 QNH2996INS WND VRB03KT 2407-2415 TX31/2421Z TN13/2412Z

Example: see airport list